sensor_id;sensor_type;location;lat;lon;timestamp;pressure;altitude;pressure_sealevel;temperature;humidity
64388;BME280;50709;52.648;4.764;2022-08-01T00:02:10;101696.41;;;22.20;68.43
64388;BME280;50709;52.648;4.764;2022-08-01T00:04:36;101701.00;;;22.16;68.71
64388;BME280;50709;52.648;4.764;2022-08-01T00:07:01;101704.28;;;22.25;68.82
64388;BME280;50709;52.648;4.764;2022-08-01T00:09:26;101702.28;;;22.31;68.53
64388;BME280;50709;52.648;4.764;2022-08-01T00:11:52;101708.63;;;22.27;68.71
64388;BME280;50709;52.648;4.764;2022-08-01T00:14:17;101716.16;;;22.41;68.03
64388;BME280;50709;52.648;4.764;2022-08-01T00:16:42;101716.03;;;22.46;67.74
64388;BME280;50709;52.648;4.764;2022-08-01T00:19:08;101717.03;;;22.42;67.84
64388;BME280;50709;52.648;4.764;2022-08-01T00:21:33;101705.19;;;22.24;67.90
64388;BME280;50709;52.648;4.764;2022-08-01T00:23:58;101711.13;;;22.32;68.54
64388;BME280;50709;52.648;4.764;2022-08-01T00:26:24;101712.72;;;22.38;68.24
64388;BME280;50709;52.648;4.764;2022-08-01T00:28:49;101705.69;;;22.08;68.25
64388;BME280;50709;52.648;4.764;2022-08-01T00:31:15;101717.31;;;22.32;68.12
64388;BME280;50709;52.648;4.764;2022-08-01T00:33:40;101713.28;;;22.21;68.51
64388;BME280;50709;52.648;4.764;2022-08-01T00:36:05;101683.59;;;22.06;68.19
64388;BME280;50709;52.648;4.764;2022-08-01T00:38:31;101708.88;;;22.20;68.27
64388;BME280;50709;52.648;4.764;2022-08-01T00:40:56;101707.78;;;22.25;68.49
64388;BME280;50709;52.648;4.764;2022-08-01T00:43:22;101708.69;;;22.26;68.11
64388;BME280;50709;52.648;4.764;2022-08-01T00:45:47;101674.81;;;22.04;68.18
64388;BME280;50709;52.648;4.764;2022-08-01T00:48:13;101692.97;;;22.18;68.06
64388;BME280;50709;52.648;4.764;2022-08-01T00:50:38;101711.28;;;22.27;68.13
64388;BME280;50709;52.648;4.764;2022-08-01T00:53:04;101663.19;;;22.07;68.37
64388;BME280;50709;52.648;4.764;2022-08-01T00:55:31;101714.75;;;22.29;68.38
64388;BME280;50709;52.648;4.764;2022-08-01T00:57:57;101711.28;;;22.27;68.55
64388;BME280;50709;52.648;4.764;2022-08-01T01:00:23;101714.53;;;22.37;66.88
64388;BME280;50709;52.648;4.764;2022-08-01T01:02:48;101727.09;;;22.32;68.56
64388;BME280;50709;52.648;4.764;2022-08-01T01:05:14;101727.31;;;22.26;68.10
64388;BME280;50709;52.648;4.764;2022-08-01T01:07:53;101722.13;;;22.21;68.70
64388;BME280;50709;52.648;4.764;2022-08-01T01:13:09;101721.38;;;22.16;68.70
64388;BME280;50709;52.648;4.764;2022-08-01T01:15:58;101730.03;;;22.23;68.52
64388;BME280;50709;52.648;4.764;2022-08-01T01:18:29;101713.28;;;22.21;68.19
64388;BME280;50709;52.648;4.764;2022-08-01T01:21:11;101733.72;;;22.18;68.80
64388;BME280;50709;52.648;4.764;2022-08-01T01:29:14;101736.38;;;22.18;68.43
64388;BME280;50709;52.648;4.764;2022-08-01T01:34:43;101708.31;;;22.10;68.51
64388;BME280;50709;52.648;4.764;2022-08-01T01:37:23;101733.72;;;22.18;68.83
64388;BME280;50709;52.648;4.764;2022-08-01T01:39:51;101727.66;;;22.13;69.30
64388;BME280;50709;52.648;4.764;2022-08-01T01:42:18;101681.56;;;21.86;69.00
64388;BME280;50709;52.648;4.764;2022-08-01T01:44:45;101730.34;;;22.13;69.19
64388;BME280;50709;52.648;4.764;2022-08-01T01:47:12;101720.78;;;22.08;69.21
64388;BME280;50709;52.648;4.764;2022-08-01T01:49:39;101730.16;;;22.20;69.34
64388;BME280;50709;52.648;4.764;2022-08-01T01:52:07;101730.59;;;22.06;69.36
64388;BME280;50709;52.648;4.764;2022-08-01T01:54:37;101733.06;;;22.12;69.46
64388;BME280;50709;52.648;4.764;2022-08-01T01:57:05;101728.06;;;22.01;69.65
64388;BME280;50709;52.648;4.764;2022-08-01T01:59:34;101712.41;;;21.92;69.42
64388;BME280;50709;52.648;4.764;2022-08-01T02:02:02;101723.19;;;21.87;69.75
64388;BME280;50709;52.648;4.764;2022-08-01T02:04:28;101729.97;;;21.97;69.75
64388;BME280;50709;52.648;4.764;2022-08-01T02:06:56;101741.09;;;22.10;69.40
64388;BME280;50709;52.648;4.764;2022-08-01T02:09:23;101749.28;;;22.04;69.57
64388;BME280;50709;52.648;4.764;2022-08-01T02:11:52;101743.28;;;21.97;69.56
64388;BME280;50709;52.648;4.764;2022-08-01T02:14:19;101749.91;;;22.12;69.51
64388;BME280;50709;52.648;4.764;2022-08-01T02:16:48;101755.50;;;22.03;69.77
64388;BME280;50709;52.648;4.764;2022-08-01T02:19:14;101698.78;;;21.74;69.64
64388;BME280;50709;52.648;4.764;2022-08-01T02:21:51;101759.66;;;22.12;69.80
64388;BME280;50709;52.648;4.764;2022-08-01T02:27:06;101754.88;;;21.95;70.17
64388;BME280;50709;52.648;4.764;2022-08-01T02:29:47;101755.97;;;21.88;70.10
64388;BME280;50709;52.648;4.764;2022-08-01T02:32:20;101757.38;;;21.99;69.87
64388;BME280;50709;52.648;4.764;2022-08-01T02:34:51;101757.72;;;21.89;70.22
64388;BME280;50709;52.648;4.764;2022-08-01T02:37:18;101766.03;;;22.06;69.42
64388;BME280;50709;52.648;4.764;2022-08-01T02:39:48;101755.69;;;21.97;69.02
64388;BME280;50709;52.648;4.764;2022-08-01T02:42:18;101739.59;;;22.01;68.44
64388;BME280;50709;52.648;4.764;2022-08-01T02:44:44;101764.28;;;22.05;68.53
64388;BME280;50709;52.648;4.764;2022-08-01T02:47:12;101702.88;;;21.84;68.19
64388;BME280;50709;52.648;4.764;2022-08-01T02:49:45;101742.06;;;22.08;68.21
64388;BME280;50709;52.648;4.764;2022-08-01T02:52:16;101702.31;;;21.75;68.66
64388;BME280;50709;52.648;4.764;2022-08-01T02:54:48;101742.09;;;22.06;68.38
64388;BME280;50709;52.648;4.764;2022-08-01T02:57:15;101760.81;;;22.03;68.70
64388;BME280;50709;52.648;4.764;2022-08-01T02:59:42;101758.16;;;22.03;68.73
64388;BME280;50709;52.648;4.764;2022-08-01T03:02:08;101734.75;;;21.86;68.46
64388;BME280;50709;52.648;4.764;2022-08-01T03:04:35;101760.72;;;22.06;68.66
64388;BME280;50709;52.648;4.764;2022-08-01T03:07:03;101718.94;;;21.81;68.56
64388;BME280;50709;52.648;4.764;2022-08-01T03:09:32;101746.75;;;21.99;68.58
64388;BME280;50709;52.648;4.764;2022-08-01T03:12:02;101713.38;;;21.61;68.41
64388;BME280;50709;52.648;4.764;2022-08-01T03:14:29;101750.38;;;21.97;68.33
64388;BME280;50709;52.648;4.764;2022-08-01T03:16:57;101751.72;;;22.10;67.57
64388;BME280;50709;52.648;4.764;2022-08-01T03:19:24;101779.28;;;22.08;68.70
64388;BME280;50709;52.648;4.764;2022-08-01T03:21:51;101761.69;;;22.04;67.98
64388;BME280;50709;52.648;4.764;2022-08-01T03:24:18;101767.00;;;22.04;67.64
64388;BME280;50709;52.648;4.764;2022-08-01T03:26:44;101763.31;;;22.08;67.69
64388;BME280;50709;52.648;4.764;2022-08-01T03:29:15;101775.63;;;22.12;67.60
64388;BME280;50709;52.648;4.764;2022-08-01T03:31:44;101785.69;;;22.02;68.07
64388;BME280;50709;52.648;4.764;2022-08-01T03:34:09;101783.66;;;22.10;67.51
64388;BME280;50709;52.648;4.764;2022-08-01T03:36:45;101793.34;;;21.83;68.67
64388;BME280;50709;52.648;4.764;2022-08-01T03:39:12;101781.44;;;21.96;67.79
64388;BME280;50709;52.648;4.764;2022-08-01T03:41:41;101784.13;;;21.95;68.38
64388;BME280;50709;52.648;4.764;2022-08-01T03:44:15;101783.19;;;21.97;67.70
64388;BME280;50709;52.648;4.764;2022-08-01T03:46:47;101791.47;;;21.87;67.98
64388;BME280;50709;52.648;4.764;2022-08-01T03:49:29;101792.75;;;22.03;67.29
64388;BME280;50709;52.648;4.764;2022-08-01T03:51:57;101790.53;;;21.88;67.79
64388;BME280;50709;52.648;4.764;2022-08-01T03:54:25;101793.44;;;21.80;68.11
64388;BME280;50709;52.648;4.764;2022-08-01T03:56:53;101793.28;;;21.84;67.68
64388;BME280;50709;52.648;4.764;2022-08-01T03:59:20;101786.81;;;21.65;67.77
64388;BME280;50709;52.648;4.764;2022-08-01T04:01:47;101806.78;;;21.78;67.96
64388;BME280;50709;52.648;4.764;2022-08-01T04:04:13;101789.63;;;21.89;66.81
64388;BME280;50709;52.648;4.764;2022-08-01T04:06:40;101797.22;;;22.01;66.80
64388;BME280;50709;52.648;4.764;2022-08-01T04:09:08;101806.22;;;21.97;66.66
64388;BME280;50709;52.648;4.764;2022-08-01T04:11:33;101754.75;;;21.70;66.39
64388;BME280;50709;52.648;4.764;2022-08-01T04:13:59;101771.56;;;21.70;67.01
64388;BME280;50709;52.648;4.764;2022-08-01T04:16:24;101795.16;;;21.82;66.71
64388;BME280;50709;52.648;4.764;2022-08-01T04:18:50;101812.53;;;21.93;66.72
64388;BME280;50709;52.648;4.764;2022-08-01T04:21:18;101780.81;;;21.57;67.33
64388;BME280;50709;52.648;4.764;2022-08-01T04:23:47;101801.47;;;21.78;66.17
64388;BME280;50709;52.648;4.764;2022-08-01T04:26:15;101811.88;;;21.86;65.77
64388;BME280;50709;52.648;4.764;2022-08-01T04:28:42;101818.97;;;21.86;65.78
64388;BME280;50709;52.648;4.764;2022-08-01T04:31:10;101823.28;;;21.90;66.20
64388;BME280;50709;52.648;4.764;2022-08-01T04:33:40;101829.19;;;21.99;65.46
64388;BME280;50709;52.648;4.764;2022-08-01T04:36:08;101821.75;;;21.82;65.58
64388;BME280;50709;52.648;4.764;2022-08-01T04:38:36;101816.50;;;21.79;65.22
64388;BME280;50709;52.648;4.764;2022-08-01T04:41:03;101805.22;;;21.71;65.39
64388;BME280;50709;52.648;4.764;2022-08-01T04:43:33;101829.41;;;21.92;64.62
64388;BME280;50709;52.648;4.764;2022-08-01T04:45:58;101828.22;;;21.72;65.42
64388;BME280;50709;52.648;4.764;2022-08-01T04:48:29;101834.13;;;21.82;64.46
64388;BME280;50709;52.648;4.764;2022-08-01T04:50:54;101849.94;;;21.88;65.49
64388;BME280;50709;52.648;4.764;2022-08-01T04:53:20;101837.97;;;22.03;64.22
64388;BME280;50709;52.648;4.764;2022-08-01T04:55:48;101839.97;;;21.95;64.11
64388;BME280;50709;52.648;4.764;2022-08-01T04:58:14;101835.69;;;21.91;64.77
64388;BME280;50709;52.648;4.764;2022-08-01T05:00:40;101836.69;;;21.85;64.62
64388;BME280;50709;52.648;4.764;2022-08-01T05:03:06;101842.16;;;21.80;64.33
64388;BME280;50709;52.648;4.764;2022-08-01T05:05:31;101841.53;;;21.72;64.62
64388;BME280;50709;52.648;4.764;2022-08-01T05:07:57;101787.19;;;21.49;63.56
64388;BME280;50709;52.648;4.764;2022-08-01T05:10:22;101836.84;;;21.80;63.87
64388;BME280;50709;52.648;4.764;2022-08-01T05:12:48;101848.44;;;22.08;63.88
64388;BME280;50709;52.648;4.764;2022-08-01T05:15:13;101857.59;;;21.99;63.79
64388;BME280;50709;52.648;4.764;2022-08-01T05:17:38;101834.47;;;21.71;64.59
64388;BME280;50709;52.648;4.764;2022-08-01T05:20:04;101853.84;;;21.75;64.39
64388;BME280;50709;52.648;4.764;2022-08-01T05:22:31;101802.53;;;21.40;63.20
64388;BME280;50709;52.648;4.764;2022-08-01T05:24:57;101853.78;;;22.08;63.64
64388;BME280;50709;52.648;4.764;2022-08-01T05:27:25;101840.25;;;21.86;63.58
64388;BME280;50709;52.648;4.764;2022-08-01T05:29:50;101825.34;;;21.80;63.06
64388;BME280;50709;52.648;4.764;2022-08-01T05:32:15;101816.34;;;22.14;64.91
64388;BME280;50709;52.648;4.764;2022-08-01T05:34:41;101863.81;;;22.28;62.07
64388;BME280;50709;52.648;4.764;2022-08-01T05:37:07;101848.84;;;22.24;62.91
64388;BME280;50709;52.648;4.764;2022-08-01T05:39:32;101854.28;;;22.50;63.75
64388;BME280;50709;52.648;4.764;2022-08-01T05:41:58;101806.38;;;22.21;61.07
64388;BME280;50709;52.648;4.764;2022-08-01T05:44:23;101868.78;;;22.68;62.57
64388;BME280;50709;52.648;4.764;2022-08-01T05:46:49;101859.97;;;22.66;59.67
64388;BME280;50709;52.648;4.764;2022-08-01T05:49:14;101861.81;;;22.91;61.36
64388;BME280;50709;52.648;4.764;2022-08-01T05:51:39;101842.03;;;22.45;60.61
64388;BME280;50709;52.648;4.764;2022-08-01T05:54:05;101879.00;;;22.54;59.43
64388;BME280;50709;52.648;4.764;2022-08-01T05:56:30;101870.81;;;22.60;61.13
64388;BME280;50709;52.648;4.764;2022-08-01T05:58:56;101861.75;;;22.38;60.24
64388;BME280;50709;52.648;4.764;2022-08-01T06:01:21;101876.41;;;22.79;61.62
64388;BME280;50709;52.648;4.764;2022-08-01T06:03:46;101862.41;;;22.74;60.78
64388;BME280;50709;52.648;4.764;2022-08-01T06:06:12;101871.91;;;22.81;59.90
64388;BME280;50709;52.648;4.764;2022-08-01T06:08:39;101878.03;;;22.83;60.57
64388;BME280;50709;52.648;4.764;2022-08-01T06:11:04;101843.81;;;22.44;59.99
64388;BME280;50709;52.648;4.764;2022-08-01T06:13:30;101846.13;;;22.55;59.72
64388;BME280;50709;52.648;4.764;2022-08-01T06:15:55;101840.00;;;22.53;60.47
64388;BME280;50709;52.648;4.764;2022-08-01T06:18:21;101887.69;;;22.59;59.24
64388;BME280;50709;52.648;4.764;2022-08-01T06:20:46;101886.16;;;22.80;58.83
64388;BME280;50709;52.648;4.764;2022-08-01T06:23:12;101878.31;;;22.76;59.80
64388;BME280;50709;52.648;4.764;2022-08-01T06:25:38;101884.94;;;22.91;59.18
64388;BME280;50709;52.648;4.764;2022-08-01T06:28:03;101888.03;;;23.04;58.49
64388;BME280;50709;52.648;4.764;2022-08-01T06:30:29;101838.06;;;23.37;57.55
64388;BME280;50709;52.648;4.764;2022-08-01T06:32:54;101820.28;;;23.38;59.47
64388;BME280;50709;52.648;4.764;2022-08-01T06:35:25;101881.88;;;24.04;56.42
64388;BME280;50709;52.648;4.764;2022-08-01T06:37:50;101846.94;;;24.10;54.94
64388;BME280;50709;52.648;4.764;2022-08-01T06:40:16;101890.09;;;24.22;56.50
64388;BME280;50709;52.648;4.764;2022-08-01T06:42:41;101892.78;;;24.22;55.61
64388;BME280;50709;52.648;4.764;2022-08-01T06:45:09;101883.19;;;23.67;56.52
64388;BME280;50709;52.648;4.764;2022-08-01T06:47:35;101880.31;;;23.73;56.90
64388;BME280;50709;52.648;4.764;2022-08-01T06:50:00;101896.59;;;24.14;55.23
64388;BME280;50709;52.648;4.764;2022-08-01T06:52:26;101891.59;;;24.29;53.23
64388;BME280;50709;52.648;4.764;2022-08-01T06:54:51;101856.53;;;23.67;55.65
64388;BME280;50709;52.648;4.764;2022-08-01T06:57:17;101884.66;;;22.98;52.97
64388;BME280;50709;52.648;4.764;2022-08-01T06:59:43;101900.19;;;23.64;54.61
64388;BME280;50709;52.648;4.764;2022-08-01T07:02:08;101903.53;;;23.46;52.62
64388;BME280;50709;52.648;4.764;2022-08-01T07:04:34;101891.44;;;23.84;54.79
64388;BME280;50709;52.648;4.764;2022-08-01T07:07:00;101891.25;;;23.91;55.96
64388;BME280;50709;52.648;4.764;2022-08-01T07:09:26;101898.84;;;23.52;57.07
64388;BME280;50709;52.648;4.764;2022-08-01T07:11:51;101912.44;;;23.95;55.33
64388;BME280;50709;52.648;4.764;2022-08-01T07:14:18;101897.97;;;24.01;55.39
64388;BME280;50709;52.648;4.764;2022-08-01T07:16:44;101902.53;;;23.99;52.73
64388;BME280;50709;52.648;4.764;2022-08-01T07:19:09;101910.72;;;24.40;57.02
64388;BME280;50709;52.648;4.764;2022-08-01T07:21:34;101898.31;;;24.39;56.87
64388;BME280;50709;52.648;4.764;2022-08-01T07:24:00;101915.47;;;24.56;53.18
64388;BME280;50709;52.648;4.764;2022-08-01T07:26:26;101917.81;;;24.41;52.67
64388;BME280;50709;52.648;4.764;2022-08-01T07:28:52;101889.06;;;24.48;54.87
64388;BME280;50709;52.648;4.764;2022-08-01T07:31:18;101905.47;;;24.61;52.24
64388;BME280;50709;52.648;4.764;2022-08-01T07:33:43;101916.97;;;24.63;55.80
64388;BME280;50709;52.648;4.764;2022-08-01T07:36:09;101918.38;;;24.73;52.09
64388;BME280;50709;52.648;4.764;2022-08-01T07:38:34;101919.88;;;24.57;53.67
64388;BME280;50709;52.648;4.764;2022-08-01T07:40:59;101933.75;;;24.89;53.13
64388;BME280;50709;52.648;4.764;2022-08-01T07:43:24;101937.53;;;24.61;53.46
64388;BME280;50709;52.648;4.764;2022-08-01T07:45:50;101922.72;;;24.76;50.93
64388;BME280;50709;52.648;4.764;2022-08-01T07:48:15;101905.38;;;24.40;49.47
64388;BME280;50709;52.648;4.764;2022-08-01T07:50:40;101901.78;;;24.65;54.19
64388;BME280;50709;52.648;4.764;2022-08-01T07:53:06;101938.72;;;25.20;51.99
64388;BME280;50709;52.648;4.764;2022-08-01T07:55:31;101948.66;;;25.16;53.06
64388;BME280;50709;52.648;4.764;2022-08-01T07:57:57;101947.13;;;25.11;51.64
64388;BME280;50709;52.648;4.764;2022-08-01T08:00:22;101957.50;;;24.96;51.71
64388;BME280;50709;52.648;4.764;2022-08-01T08:02:48;101936.88;;;24.78;50.37
64388;BME280;50709;52.648;4.764;2022-08-01T08:05:13;101959.38;;;24.94;54.12
64388;BME280;50709;52.648;4.764;2022-08-01T08:07:39;101956.09;;;24.88;50.18
64388;BME280;50709;52.648;4.764;2022-08-01T08:10:05;101904.09;;;24.74;52.18
64388;BME280;50709;52.648;4.764;2022-08-01T08:12:30;101950.16;;;25.01;52.09
64388;BME280;50709;52.648;4.764;2022-08-01T08:14:56;101939.88;;;24.70;49.59
64388;BME280;50709;52.648;4.764;2022-08-01T08:17:24;101938.44;;;24.83;50.41
64388;BME280;50709;52.648;4.764;2022-08-01T08:19:50;101948.19;;;25.07;51.95
64388;BME280;50709;52.648;4.764;2022-08-01T08:22:15;101925.34;;;25.20;48.30
64388;BME280;50709;52.648;4.764;2022-08-01T08:24:41;101948.59;;;25.18;52.96
64388;BME280;50709;52.648;4.764;2022-08-01T08:27:06;101972.78;;;25.15;49.05
64388;BME280;50709;52.648;4.764;2022-08-01T08:29:33;101949.50;;;25.17;50.23
64388;BME280;50709;52.648;4.764;2022-08-01T08:31:59;101946.91;;;24.71;53.37
64388;BME280;50709;52.648;4.764;2022-08-01T08:34:26;101984.41;;;25.14;53.75
64388;BME280;50709;52.648;4.764;2022-08-01T08:36:52;101948.78;;;24.91;48.25
64388;BME280;50709;52.648;4.764;2022-08-01T08:39:18;101969.91;;;25.42;52.83
64388;BME280;50709;52.648;4.764;2022-08-01T08:41:43;101962.63;;;24.33;51.10
64388;BME280;50709;52.648;4.764;2022-08-01T08:44:09;101969.88;;;24.99;48.86
64388;BME280;50709;52.648;4.764;2022-08-01T08:46:40;101966.94;;;24.83;52.50
64388;BME280;50709;52.648;4.764;2022-08-01T08:49:06;101938.53;;;23.85;49.27
64388;BME280;50709;52.648;4.764;2022-08-01T08:51:33;101975.00;;;25.03;52.58
64388;BME280;50709;52.648;4.764;2022-08-01T08:54:00;101980.03;;;24.43;47.23
64388;BME280;50709;52.648;4.764;2022-08-01T08:56:28;101951.78;;;24.14;49.32
64388;BME280;50709;52.648;4.764;2022-08-01T08:58:58;101960.41;;;24.68;48.79
64388;BME280;50709;52.648;4.764;2022-08-01T09:01:24;101982.47;;;24.73;48.69
64388;BME280;50709;52.648;4.764;2022-08-01T09:03:49;101966.72;;;25.32;51.26
64388;BME280;50709;52.648;4.764;2022-08-01T09:06:15;101956.47;;;25.43;51.08
64388;BME280;50709;52.648;4.764;2022-08-01T09:08:40;101983.59;;;25.12;47.45
64388;BME280;50709;52.648;4.764;2022-08-01T09:11:05;101976.38;;;24.69;50.43
64388;BME280;50709;52.648;4.764;2022-08-01T09:13:31;101984.84;;;25.03;48.58
64388;BME280;50709;52.648;4.764;2022-08-01T09:15:56;101975.38;;;25.16;51.22
64388;BME280;50709;52.648;4.764;2022-08-01T09:18:28;101971.19;;;25.31;52.81
64388;BME280;50709;52.648;4.764;2022-08-01T09:23:48;101960.22;;;24.95;52.34
64388;BME280;50709;52.648;4.764;2022-08-01T09:26:20;101997.88;;;25.55;51.46
64388;BME280;50709;52.648;4.764;2022-08-01T09:28:47;101989.72;;;25.58;46.67
64388;BME280;50709;52.648;4.764;2022-08-01T09:31:16;102004.84;;;25.37;49.70
64388;BME280;50709;52.648;4.764;2022-08-01T09:33:56;101954.69;;;24.99;47.87
64388;BME280;50709;52.648;4.764;2022-08-01T09:36:25;102020.06;;;25.13;52.73
64388;BME280;50709;52.648;4.764;2022-08-01T09:38:52;101966.34;;;24.98;47.29
64388;BME280;50709;52.648;4.764;2022-08-01T09:41:28;101995.84;;;25.60;51.38
64388;BME280;50709;52.648;4.764;2022-08-01T09:43:55;102000.47;;;25.57;49.61
64388;BME280;50709;52.648;4.764;2022-08-01T09:46:20;101970.16;;;25.35;49.40
64388;BME280;50709;52.648;4.764;2022-08-01T09:49:28;102008.97;;;25.46;45.47
64388;BME280;50709;52.648;4.764;2022-08-01T09:51:54;102009.41;;;24.67;46.38
64388;BME280;50709;52.648;4.764;2022-08-01T09:54:31;102013.00;;;25.34;48.37
64388;BME280;50709;52.648;4.764;2022-08-01T09:57:10;102010.00;;;25.19;49.59
64388;BME280;50709;52.648;4.764;2022-08-01T09:59:37;101980.50;;;25.23;48.07
64388;BME280;50709;52.648;4.764;2022-08-01T10:02:05;101979.72;;;25.41;48.19
64388;BME280;50709;52.648;4.764;2022-08-01T10:04:30;102005.94;;;25.53;51.54
64388;BME280;50709;52.648;4.764;2022-08-01T10:07:05;101975.53;;;25.13;51.74
64388;BME280;50709;52.648;4.764;2022-08-01T10:09:33;101986.69;;;24.79;45.52
64388;BME280;50709;52.648;4.764;2022-08-01T10:11:59;101996.63;;;24.28;48.38
64388;BME280;50709;52.648;4.764;2022-08-01T10:14:26;102005.69;;;24.47;50.27
64388;BME280;50709;52.648;4.764;2022-08-01T10:16:53;102021.75;;;25.15;45.93
64388;BME280;50709;52.648;4.764;2022-08-01T10:19:22;102011.78;;;24.75;52.10
64388;BME280;50709;52.648;4.764;2022-08-01T10:21:52;102002.41;;;25.09;49.68
64388;BME280;50709;52.648;4.764;2022-08-01T10:24:20;102022.41;;;25.65;50.39
64388;BME280;50709;52.648;4.764;2022-08-01T10:26:51;102018.59;;;24.83;48.25
64388;BME280;50709;52.648;4.764;2022-08-01T10:29:18;102001.81;;;24.80;46.40
64388;BME280;50709;52.648;4.764;2022-08-01T10:31:46;102027.28;;;25.33;50.84
64388;BME280;50709;52.648;4.764;2022-08-01T10:34:12;102026.22;;;25.59;49.04
64388;BME280;50709;52.648;4.764;2022-08-01T10:36:41;102014.44;;;24.27;46.24
64388;BME280;50709;52.648;4.764;2022-08-01T10:39:10;102010.63;;;25.26;49.66
64388;BME280;50709;52.648;4.764;2022-08-01T10:41:36;101992.41;;;25.14;46.74
64388;BME280;50709;52.648;4.764;2022-08-01T10:44:03;102021.81;;;25.58;50.24
64388;BME280;50709;52.648;4.764;2022-08-01T10:46:30;101968.56;;;25.52;49.22
64388;BME280;50709;52.648;4.764;2022-08-01T10:49:04;102003.22;;;25.33;45.71
64388;BME280;50709;52.648;4.764;2022-08-01T10:51:34;101990.31;;;24.54;44.12
64388;BME280;50709;52.648;4.764;2022-08-01T10:54:05;102021.94;;;25.11;44.70
64388;BME280;50709;52.648;4.764;2022-08-01T10:56:46;101975.34;;;24.96;47.17
64388;BME280;50709;52.648;4.764;2022-08-01T10:59:22;102035.84;;;24.75;44.69
64388;BME280;50709;52.648;4.764;2022-08-01T11:02:02;102001.97;;;24.75;46.03
64388;BME280;50709;52.648;4.764;2022-08-01T11:07:07;101979.94;;;25.37;45.04
64388;BME280;50709;52.648;4.764;2022-08-01T11:09:44;101991.28;;;24.75;44.32
64388;BME280;50709;52.648;4.764;2022-08-01T11:12:15;102026.38;;;25.12;47.91
64388;BME280;50709;52.648;4.764;2022-08-01T11:17:43;102036.94;;;26.00;49.24
64388;BME280;50709;52.648;4.764;2022-08-01T11:20:24;102033.88;;;25.89;43.36
64388;BME280;50709;52.648;4.764;2022-08-01T11:30:54;102031.44;;;25.83;48.54
64388;BME280;50709;52.648;4.764;2022-08-01T11:38:42;102024.63;;;25.96;49.67
64388;BME280;50709;52.648;4.764;2022-08-01T11:41:15;102033.13;;;26.27;48.89
64388;BME280;50709;52.648;4.764;2022-08-01T11:44:01;102039.31;;;26.08;49.15
64388;BME280;50709;52.648;4.764;2022-08-01T11:46:57;102028.03;;;26.00;46.48
64388;BME280;50709;52.648;4.764;2022-08-01T11:52:23;102001.66;;;25.49;49.87
64388;BME280;50709;52.648;4.764;2022-08-01T11:59:48;102034.88;;;25.86;48.66
64388;BME280;50709;52.648;4.764;2022-08-01T12:02:24;102028.75;;;26.05;42.59
64388;BME280;50709;52.648;4.764;2022-08-01T12:07:19;102031.66;;;25.78;48.32
64388;BME280;50709;52.648;4.764;2022-08-01T12:09:45;102035.94;;;25.62;40.79
64388;BME280;50709;52.648;4.764;2022-08-01T12:12:14;102002.22;;;25.78;40.75
64388;BME280;50709;52.648;4.764;2022-08-01T12:14:42;102039.59;;;26.42;41.94
64388;BME280;50709;52.648;4.764;2022-08-01T12:17:07;102027.50;;;26.52;42.13
64388;BME280;50709;52.648;4.764;2022-08-01T12:19:33;102011.72;;;26.46;40.96
64388;BME280;50709;52.648;4.764;2022-08-01T12:22:07;102045.28;;;26.34;40.94
64388;BME280;50709;52.648;4.764;2022-08-01T12:24:34;102037.75;;;26.23;41.28
64388;BME280;50709;52.648;4.764;2022-08-01T12:27:00;102034.84;;;26.28;47.72
64388;BME280;50709;52.648;4.764;2022-08-01T12:29:39;101995.31;;;26.14;42.72
64388;BME280;50709;52.648;4.764;2022-08-01T12:32:31;102038.28;;;26.50;42.29
64388;BME280;50709;52.648;4.764;2022-08-01T12:37:29;102035.59;;;26.71;47.02
64388;BME280;50709;52.648;4.764;2022-08-01T12:39:55;102040.09;;;26.31;40.71
64388;BME280;50709;52.648;4.764;2022-08-01T12:42:21;102029.25;;;26.53;46.14
64388;BME280;50709;52.648;4.764;2022-08-01T12:44:51;102040.97;;;26.50;46.80
64388;BME280;50709;52.648;4.764;2022-08-01T12:47:18;102033.91;;;26.68;46.51
64388;BME280;50709;52.648;4.764;2022-08-01T12:49:44;102041.56;;;26.57;44.87
64388;BME280;50709;52.648;4.764;2022-08-01T12:52:11;102043.53;;;25.50;40.39
64388;BME280;50709;52.648;4.764;2022-08-01T12:57:30;102035.59;;;26.71;40.38
64388;BME280;50709;52.648;4.764;2022-08-01T13:00:13;102008.22;;;25.63;38.23
64388;BME280;50709;52.648;4.764;2022-08-01T13:02:40;102015.06;;;25.05;42.34
64388;BME280;50709;52.648;4.764;2022-08-01T13:05:07;102012.91;;;26.19;46.53
64388;BME280;50709;52.648;4.764;2022-08-01T13:07:36;102028.63;;;26.67;42.52
64388;BME280;50709;52.648;4.764;2022-08-01T13:10:03;102003.09;;;26.39;40.32
64388;BME280;50709;52.648;4.764;2022-08-01T13:12:29;102027.97;;;27.00;44.50
64388;BME280;50709;52.648;4.764;2022-08-01T13:14:54;102017.47;;;26.76;40.37
64388;BME280;50709;52.648;4.764;2022-08-01T13:17:32;102013.66;;;26.61;39.50
64388;BME280;50709;52.648;4.764;2022-08-01T13:20:00;101997.09;;;26.34;39.70
64388;BME280;50709;52.648;4.764;2022-08-01T13:22:36;102011.91;;;26.41;43.96
64388;BME280;50709;52.648;4.764;2022-08-01T13:25:16;101966.69;;;26.54;38.04
64388;BME280;50709;52.648;4.764;2022-08-01T13:27:42;102014.53;;;25.82;39.89
64388;BME280;50709;52.648;4.764;2022-08-01T13:30:18;102009.59;;;26.14;39.84
64388;BME280;50709;52.648;4.764;2022-08-01T13:32:57;101999.69;;;26.55;39.16
64388;BME280;50709;52.648;4.764;2022-08-01T13:35:23;102003.72;;;26.84;43.03
64388;BME280;50709;52.648;4.764;2022-08-01T13:37:48;101999.19;;;26.84;44.66
64388;BME280;50709;52.648;4.764;2022-08-01T13:40:23;102005.09;;;26.74;43.77
64388;BME280;50709;52.648;4.764;2022-08-01T13:42:50;102002.63;;;26.88;38.35
64388;BME280;50709;52.648;4.764;2022-08-01T13:45:15;101950.53;;;26.56;37.21
64388;BME280;50709;52.648;4.764;2022-08-01T13:47:42;101993.06;;;26.82;42.24